createdAt,value
2023-03-12T00:00:08.730Z,97555.13
2023-03-12T00:02:35.891Z,97547.63
2023-03-12T00:05:03.152Z,97545.38
2023-03-12T00:07:30.057Z,97552.63
2023-03-12T00:09:56.810Z,97558.53
2023-03-12T00:12:23.688Z,97553.94
2023-03-12T00:14:50.370Z,97554.09
2023-03-12T00:17:17.223Z,97551.81
2023-03-12T00:19:45.420Z,97543.09
2023-03-12T00:22:12.324Z,97554.16
2023-03-12T00:24:39.339Z,97548.56
2023-03-12T00:27:06.958Z,97543.66
2023-03-12T00:29:34.057Z,97548.50
2023-03-12T00:32:00.959Z,97550.19
2023-03-12T00:34:27.660Z,97546.78
2023-03-12T00:36:54.530Z,97544.94
2023-03-12T00:39:21.194Z,97539.16
2023-03-12T00:41:48.088Z,97550.78
2023-03-12T00:44:14.733Z,97546.91
2023-03-12T00:46:41.609Z,97552.78
2023-03-12T00:49:08.709Z,97553.22
2023-03-12T00:51:35.582Z,97558.34
2023-03-12T00:54:02.437Z,97556.13
2023-03-12T00:56:29.142Z,97563.94
2023-03-12T00:58:56.009Z,97563.13
2023-03-12T01:01:22.715Z,97569.13
2023-03-12T01:03:52.351Z,97562.16
2023-03-12T01:06:19.539Z,97558.38
2023-03-12T01:08:46.569Z,97559.03
2023-03-12T01:11:17.196Z,97559.25
2023-03-12T01:13:44.138Z,97559.00
2023-03-12T01:16:10.939Z,97553.97
2023-03-12T01:18:37.868Z,97555.78
2023-03-12T01:21:04.695Z,97566.75
2023-03-12T01:23:31.690Z,97554.84
2023-03-12T01:25:59.578Z,97563.81
2023-03-12T01:28:27.017Z,97558.28
2023-03-12T01:30:54.029Z,97562.91
2023-03-12T01:33:23.112Z,97554.81
2023-03-12T01:35:50.568Z,97552.50
2023-03-12T01:38:19.233Z,97556.09
2023-03-12T01:40:46.517Z,97557.16
2023-03-12T01:43:31.972Z,97557.88
2023-03-12T01:46:28.420Z,97564.91
2023-03-12T01:49:03.236Z,97565.59
2023-03-12T01:51:39.249Z,97570.72
2023-03-12T01:54:10.108Z,97562.81
2023-03-12T01:56:38.446Z,97563.81
2023-03-12T01:59:22.934Z,97576.13
2023-03-12T02:01:50.748Z,97571.38
2023-03-12T02:04:19.804Z,97569.91
2023-03-12T02:07:02.827Z,97576.59
2023-03-12T02:09:32.586Z,97578.56
2023-03-12T02:11:59.580Z,97579.19
2023-03-12T02:14:26.509Z,97586.13
2023-03-12T02:16:54.282Z,97594.66
2023-03-12T02:19:36.209Z,97586.78
2023-03-12T02:22:04.152Z,97601.66
2023-03-12T02:24:36.418Z,97601.22
2023-03-12T02:27:04.032Z,97610.56
2023-03-12T02:29:32.493Z,97613.91
2023-03-12T02:32:01.354Z,97609.09
2023-03-12T02:34:28.745Z,97625.81
2023-03-12T02:36:55.879Z,97629.94
2023-03-12T02:39:23.101Z,97639.75
2023-03-12T02:41:55.998Z,97642.03
2023-03-12T02:44:25.734Z,97642.03
2023-03-12T02:46:55.066Z,97641.72
2023-03-12T02:49:23.451Z,97650.75
2023-03-12T02:51:50.957Z,97657.19
2023-03-12T02:54:19.654Z,97661.97
2023-03-12T02:56:47.184Z,97655.66
2023-03-12T02:59:15.382Z,97662.66
2023-03-12T03:01:43.258Z,97679.72
2023-03-12T03:04:11.246Z,97670.31
2023-03-12T03:06:40.741Z,97674.59
2023-03-12T03:09:07.760Z,97671.47
2023-03-12T03:11:34.772Z,97678.31
2023-03-12T03:14:04.121Z,97682.56
2023-03-12T03:16:31.024Z,97684.25
2023-03-12T03:18:57.696Z,97678.44
2023-03-12T03:21:24.873Z,97688.31
2023-03-12T03:23:51.775Z,97691.19
2023-03-12T03:26:20.081Z,97692.44
2023-03-12T03:28:47.131Z,97679.44
2023-03-12T03:31:14.188Z,97678.66
2023-03-12T03:33:41.628Z,97683.25
2023-03-12T03:36:09.767Z,97683.03
2023-03-12T03:38:36.675Z,97677.72
2023-03-12T03:41:03.405Z,97680.38
2023-03-12T03:43:30.263Z,97677.72
2023-03-12T03:46:01.240Z,97688.78
2023-03-12T03:48:28.221Z,97694.50
2023-03-12T03:50:55.265Z,97695.97
2023-03-12T03:53:22.148Z,97702.62
2023-03-12T03:55:48.814Z,97698.91
2023-03-12T03:58:15.838Z,97700.47
2023-03-12T04:00:45.415Z,97708.97
2023-03-12T04:03:13.500Z,97702.94
2023-03-12T04:05:40.845Z,97704.13
2023-03-12T04:08:08.118Z,97712.50
2023-03-12T04:10:34.972Z,97710.56
2023-03-12T04:13:01.644Z,97716.78
2023-03-12T04:15:28.540Z,97723.63
2023-03-12T04:17:55.258Z,97720.31
2023-03-12T04:20:22.154Z,97724.19
2023-03-12T04:22:48.819Z,97731.63
2023-03-12T04:25:15.789Z,97732.94
2023-03-12T04:27:42.655Z,97733.62
2023-03-12T04:30:09.650Z,97749.00
2023-03-12T04:32:36.513Z,97748.22
2023-03-12T04:35:03.495Z,97747.44
2023-03-12T04:37:33.660Z,97764.16
2023-03-12T04:40:02.486Z,97759.38
2023-03-12T04:42:29.376Z,97765.03
2023-03-12T04:44:56.102Z,97765.03
2023-03-12T04:47:22.993Z,97774.31
2023-03-12T04:49:49.645Z,97778.09
2023-03-12T04:52:17.866Z,97768.66
2023-03-12T04:54:47.840Z,97783.94
2023-03-12T04:57:15.039Z,97780.97
2023-03-12T04:59:41.892Z,97788.66
2023-03-12T05:02:08.726Z,97789.50
2023-03-12T05:04:35.608Z,97793.06
2023-03-12T05:07:02.312Z,97799.44
2023-03-12T05:09:29.343Z,97805.41
2023-03-12T05:11:56.240Z,97808.06
2023-03-12T05:14:22.990Z,97807.34
2023-03-12T05:16:49.874Z,97809.03
2023-03-12T05:19:16.630Z,97810.34
2023-03-12T05:21:43.773Z,97812.00
2023-03-12T05:24:13.171Z,97804.31
2023-03-12T05:26:40.106Z,97818.16
2023-03-12T05:29:07.114Z,97813.37
2023-03-12T05:31:35.565Z,97822.72
2023-03-12T05:34:03.580Z,97822.00
2023-03-12T05:36:30.531Z,97833.81
2023-03-12T05:38:57.543Z,97836.97
2023-03-12T05:41:27.452Z,97842.97
2023-03-12T05:43:56.311Z,97844.56
2023-03-12T05:46:24.393Z,97843.59
2023-03-12T05:48:51.492Z,97847.53
2023-03-12T05:51:18.626Z,97842.81
2023-03-12T05:53:45.585Z,97850.72
2023-03-12T05:56:15.102Z,97848.34
2023-03-12T05:58:42.529Z,97857.66
2023-03-12T06:01:19.588Z,97856.03
2023-03-12T06:03:46.927Z,97859.31
2023-03-12T06:06:14.531Z,97858.41
2023-03-12T06:08:41.918Z,97865.59
2023-03-12T06:11:10.302Z,97872.16
2023-03-12T06:13:37.223Z,97871.25
2023-03-12T06:16:10.224Z,97884.13
2023-03-12T06:18:37.940Z,97877.38
2023-03-12T06:21:18.999Z,97879.09
2023-03-12T06:23:46.492Z,97883.75
2023-03-12T06:26:14.113Z,97890.75
2023-03-12T06:28:41.005Z,97870.34
2023-03-12T06:31:08.957Z,97875.50
2023-03-12T06:33:36.110Z,97874.19
2023-03-12T06:36:05.704Z,97881.59
2023-03-12T06:38:32.886Z,97880.03
2023-03-12T06:41:05.155Z,97887.69
2023-03-12T06:43:33.061Z,97888.75
2023-03-12T06:46:01.207Z,97900.97
2023-03-12T06:48:30.274Z,97903.50
2023-03-12T06:50:57.132Z,97893.00
2023-03-12T06:53:25.411Z,97896.63
2023-03-12T06:55:52.453Z,97897.37
2023-03-12T06:58:19.533Z,97896.97
2023-03-12T07:00:46.435Z,97896.59
2023-03-12T07:03:13.387Z,97903.59
2023-03-12T07:05:40.615Z,97903.09
2023-03-12T07:08:07.536Z,97905.84
2023-03-12T07:10:34.438Z,97908.78
2023-03-12T07:13:01.307Z,97909.28
2023-03-12T07:15:27.956Z,97906.69
2023-03-12T07:17:54.990Z,97920.22
2023-03-12T07:20:21.899Z,97913.41
2023-03-12T07:22:48.751Z,97918.88
2023-03-12T07:25:17.288Z,97918.56
2023-03-12T07:27:45.477Z,97920.63
2023-03-12T07:30:12.333Z,97920.31
2023-03-12T07:32:39.195Z,97940.66
2023-03-12T07:35:06.549Z,97936.00
2023-03-12T07:37:33.438Z,97943.16
2023-03-12T07:40:00.421Z,97944.25
2023-03-12T07:42:27.398Z,97947.22
2023-03-12T07:44:54.332Z,97950.50
2023-03-12T07:47:24.397Z,97951.31
2023-03-12T07:49:51.949Z,97951.59
2023-03-12T07:52:20.473Z,97952.31
2023-03-12T07:54:47.949Z,97955.28
2023-03-12T07:57:15.144Z,97961.00
2023-03-12T07:59:42.161Z,97959.97
2023-03-12T08:02:10.689Z,97964.66
2023-03-12T08:04:37.813Z,97957.19
2023-03-12T08:07:07.282Z,97954.34
2023-03-12T08:09:35.780Z,97961.31
2023-03-12T08:12:02.761Z,97965.22
2023-03-12T08:14:31.865Z,97972.69
2023-03-12T08:16:59.244Z,97971.44
2023-03-12T08:19:26.941Z,97965.59
2023-03-12T08:21:54.532Z,97973.47
2023-03-12T08:24:22.251Z,97965.37
2023-03-12T08:26:49.154Z,97971.44
2023-03-12T08:29:16.795Z,97987.38
2023-03-12T08:32:01.528Z,97975.09
2023-03-12T08:34:30.685Z,97980.56
2023-03-12T08:36:57.513Z,97977.19
2023-03-12T08:39:24.411Z,97973.44
2023-03-12T08:41:55.542Z,97976.22
2023-03-12T08:44:23.612Z,97985.19
2023-03-12T08:46:51.449Z,97986.47
2023-03-12T08:49:18.846Z,97996.25
2023-03-12T08:51:45.740Z,97982.84
2023-03-12T08:54:12.627Z,97985.06
2023-03-12T08:56:42.567Z,97987.19
2023-03-12T08:59:13.674Z,97998.66
2023-03-12T09:01:43.612Z,97986.56
2023-03-12T09:04:11.267Z,97988.28
2023-03-12T09:06:38.759Z,98002.69
2023-03-12T09:09:06.499Z,97990.63
2023-03-12T09:11:34.120Z,97987.81
2023-03-12T09:14:42.693Z,97990.81
2023-03-12T09:16:48.937Z,97977.53
2023-03-12T09:19:16.060Z,97990.75
2023-03-12T09:21:42.947Z,97983.50
2023-03-12T09:24:10.589Z,97983.88
2023-03-12T09:26:37.472Z,97994.13
2023-03-12T09:29:04.153Z,97999.25
2023-03-12T09:31:31.050Z,97998.41
2023-03-12T09:33:57.957Z,97999.56
2023-03-12T09:36:24.855Z,98006.13
2023-03-12T09:38:51.760Z,97999.38
2023-03-12T09:41:22.339Z,98017.41
2023-03-12T09:43:56.821Z,98013.13
2023-03-12T09:46:35.381Z,98016.03
2023-03-12T09:49:05.551Z,98017.16
2023-03-12T09:51:36.539Z,98021.03
2023-03-12T09:54:06.490Z,98022.41
2023-03-12T09:56:33.891Z,98022.78
2023-03-12T09:59:00.986Z,98012.94
2023-03-12T10:01:38.428Z,98014.19
2023-03-12T10:04:23.651Z,98018.16
2023-03-12T10:07:11.578Z,98022.66
2023-03-12T10:09:47.490Z,98022.44
2023-03-12T10:12:42.432Z,98024.25
2023-03-12T10:15:47.185Z,98013.94
2023-03-12T10:18:41.994Z,98010.75
2023-03-12T10:21:43.427Z,98013.88
2023-03-12T10:24:41.490Z,98005.63
2023-03-12T10:27:17.641Z,98021.66
2023-03-12T10:29:47.281Z,98016.34
2023-03-12T10:32:17.957Z,98015.50
2023-03-12T10:34:51.354Z,98023.09
2023-03-12T10:37:25.579Z,98029.81
2023-03-12T10:39:55.594Z,98028.84
2023-03-12T10:42:25.179Z,97995.00
2023-03-12T10:45:13.701Z,98026.91
2023-03-12T10:47:42.212Z,98025.13
2023-03-12T10:50:14.036Z,98026.56
2023-03-12T10:52:41.344Z,98019.25
2023-03-12T10:55:34.725Z,98015.88
2023-03-12T10:58:01.575Z,98011.87
2023-03-12T11:00:29.285Z,98013.81
2023-03-12T11:03:04.703Z,98031.06
2023-03-12T11:05:49.022Z,98019.34
2023-03-12T11:08:36.064Z,98021.00
2023-03-12T11:11:04.369Z,98022.69
2023-03-12T11:13:38.529Z,98017.44
2023-03-12T11:16:17.732Z,98025.88
2023-03-12T11:19:01.618Z,98021.09
2023-03-12T11:21:29.313Z,98017.25
2023-03-12T11:23:59.147Z,98007.78
2023-03-12T11:26:50.366Z,98005.50
2023-03-12T11:29:27.686Z,98012.34
2023-03-12T11:32:03.302Z,98008.03
2023-03-12T11:34:33.845Z,98008.84
2023-03-12T11:37:18.683Z,98009.75
2023-03-12T11:39:56.568Z,98002.44
2023-03-12T11:43:01.082Z,97998.19
2023-03-12T11:46:00.154Z,98000.16
2023-03-12T11:48:57.891Z,97983.97
2023-03-12T11:51:28.060Z,98001.88
2023-03-12T11:54:04.035Z,97993.03
2023-03-12T11:56:35.132Z,98000.03
2023-03-12T11:59:24.748Z,97989.16
2023-03-12T12:02:16.669Z,97980.84
2023-03-12T12:05:02.350Z,97982.03
2023-03-12T12:07:57.304Z,97965.59
2023-03-12T12:10:33.868Z,97966.91
2023-03-12T12:13:09.021Z,97975.56
2023-03-12T12:15:49.156Z,97977.88
2023-03-12T12:18:42.904Z,97978.97
2023-03-12T12:21:28.474Z,97974.75
2023-03-12T12:23:55.485Z,97973.47
2023-03-12T12:26:25.398Z,97970.12
2023-03-12T12:29:06.214Z,97970.66
2023-03-12T12:31:40.691Z,97978.56
2023-03-12T12:34:41.522Z,97974.22
2023-03-12T12:37:16.426Z,97962.38
2023-03-12T12:39:47.982Z,97967.16
2023-03-12T12:42:21.385Z,97970.28
2023-03-12T12:44:55.734Z,97960.63
2023-03-12T12:47:38.989Z,97963.03
2023-03-12T12:50:06.292Z,97970.22
2023-03-12T12:52:33.361Z,97967.34
2023-03-12T12:55:19.599Z,97969.00
2023-03-12T12:58:13.532Z,97968.50
2023-03-12T13:00:48.258Z,97968.09
2023-03-12T13:03:20.818Z,97959.19
2023-03-12T13:05:56.684Z,97960.50
2023-03-12T13:08:34.685Z,97953.28
2023-03-12T13:11:25.395Z,97955.28
2023-03-12T13:14:04.214Z,97953.66
2023-03-12T13:16:36.398Z,97966.75
2023-03-12T13:19:29.288Z,97968.63
2023-03-12T13:22:13.540Z,97967.78
2023-03-12T13:24:58.204Z,97972.19
2023-03-12T13:27:29.976Z,97956.19
2023-03-12T13:29:57.238Z,97956.63
2023-03-12T13:32:36.396Z,97967.06
2023-03-12T13:35:18.453Z,97968.25
2023-03-12T13:37:54.181Z,97975.59
2023-03-12T13:40:30.134Z,97971.91
2023-03-12T13:43:14.496Z,97975.97
2023-03-12T13:46:28.788Z,97972.47
2023-03-12T13:48:58.246Z,97972.03
2023-03-12T13:51:25.338Z,97977.06
2023-03-12T13:54:03.247Z,97976.66
2023-03-12T13:56:32.142Z,97980.78
2023-03-12T13:59:07.225Z,97979.34
2023-03-12T14:01:42.271Z,97979.41
2023-03-12T14:04:13.699Z,97987.25
2023-03-12T14:06:56.810Z,97980.47
2023-03-12T14:09:36.842Z,97992.09
2023-03-12T14:12:10.744Z,97997.66
2023-03-12T14:15:05.727Z,97988.50
2023-03-12T14:17:33.695Z,97991.78
2023-03-12T14:20:07.579Z,97991.44
2023-03-12T14:22:35.718Z,97987.09
2023-03-12T14:25:13.540Z,97991.56
2023-03-12T14:27:41.171Z,97997.06
2023-03-12T14:30:13.953Z,97991.50
2023-03-12T14:32:41.120Z,97990.19
2023-03-12T14:35:28.477Z,97987.88
2023-03-12T14:38:06.424Z,97992.41
2023-03-12T14:40:44.776Z,97990.03
2023-03-12T14:43:25.602Z,97984.66
2023-03-12T14:45:58.976Z,97985.28
2023-03-12T14:48:34.622Z,97992.03
2023-03-12T14:51:03.410Z,97989.37
2023-03-12T14:53:37.344Z,97988.72
2023-03-12T14:56:14.125Z,97990.91
2023-03-12T14:58:49.037Z,97990.69
2023-03-12T15:01:19.791Z,98000.22
2023-03-12T15:03:50.306Z,97992.94
2023-03-12T15:06:30.927Z,98000.00
2023-03-12T15:08:58.695Z,97988.97
2023-03-12T15:11:27.556Z,97983.19
2023-03-12T15:13:55.534Z,97977.38
2023-03-12T15:16:22.777Z,97994.28
2023-03-12T15:18:50.368Z,97991.88
2023-03-12T15:21:17.611Z,97990.19
2023-03-12T15:23:46.883Z,97996.09
2023-03-12T15:26:22.220Z,97995.63
2023-03-12T15:29:17.366Z,97995.25
2023-03-12T15:31:48.882Z,97998.34
2023-03-12T15:34:28.183Z,97996.78
2023-03-12T15:36:55.223Z,97997.34
2023-03-12T15:39:29.927Z,97999.94
2023-03-12T15:42:01.201Z,97993.97
2023-03-12T15:44:32.435Z,97989.72
2023-03-12T15:47:12.574Z,98001.81
2023-03-12T15:49:40.229Z,98004.00
2023-03-12T15:52:29.323Z,98001.25
2023-03-12T15:55:12.877Z,98011.50
2023-03-12T15:57:48.638Z,98008.41
2023-03-12T16:00:25.275Z,98013.06
2023-03-12T16:02:56.302Z,98014.25
2023-03-12T16:05:30.089Z,98013.69
2023-03-12T16:07:57.800Z,98013.59
2023-03-12T16:10:26.848Z,98008.19
2023-03-12T16:13:01.480Z,98008.59
2023-03-12T16:15:32.209Z,98013.25
2023-03-12T16:17:59.126Z,98006.59
2023-03-12T16:20:26.320Z,98024.22
2023-03-12T16:22:53.495Z,98023.72
2023-03-12T16:25:20.584Z,98015.34
2023-03-12T16:27:55.646Z,98022.31
2023-03-12T16:30:31.402Z,98017.59
2023-03-12T16:32:59.536Z,98017.25
2023-03-12T16:35:28.366Z,98017.88
2023-03-12T16:37:55.770Z,98023.22
2023-03-12T16:40:32.813Z,98022.56
2023-03-12T16:43:04.725Z,98026.91
2023-03-12T16:45:34.885Z,98028.34
2023-03-12T16:48:04.369Z,98031.09
2023-03-12T16:50:31.411Z,98017.97
2023-03-12T16:52:58.592Z,98022.38
2023-03-12T16:55:30.465Z,98025.31
2023-03-12T16:58:01.919Z,98016.41
2023-03-12T17:00:31.195Z,98020.56
2023-03-12T17:02:59.149Z,98021.03
2023-03-12T17:05:27.767Z,98014.81
2023-03-12T17:07:55.209Z,98011.41
2023-03-12T17:10:22.699Z,98024.97
2023-03-12T17:12:50.147Z,98024.47
2023-03-12T17:15:30.788Z,98025.47
2023-03-12T17:17:59.532Z,98026.31
2023-03-12T17:20:26.465Z,98033.66
2023-03-12T17:22:53.471Z,98031.22
2023-03-12T17:25:26.285Z,98034.87
2023-03-12T17:27:54.043Z,98032.47
2023-03-12T17:30:22.218Z,98033.94
2023-03-12T17:32:50.101Z,98032.94
2023-03-12T17:35:21.150Z,98032.00
2023-03-12T17:37:51.214Z,98037.94
2023-03-12T17:40:18.334Z,98037.00
2023-03-12T17:42:45.367Z,98038.47
2023-03-12T17:45:12.355Z,98044.75
2023-03-12T17:47:39.212Z,98038.50
2023-03-12T17:50:06.630Z,98045.25
2023-03-12T17:52:34.122Z,98041.78
2023-03-12T17:55:01.420Z,98040.25
2023-03-12T17:57:28.362Z,98051.06
2023-03-12T17:59:55.319Z,98054.09
2023-03-12T18:02:22.467Z,98066.13
2023-03-12T18:04:49.464Z,98069.81
2023-03-12T18:07:18.243Z,98069.28
2023-03-12T18:09:45.416Z,98073.88
2023-03-12T18:12:12.597Z,98059.78
2023-03-12T18:14:42.474Z,98067.38
2023-03-12T18:17:09.376Z,98066.16
2023-03-12T18:19:36.247Z,98062.97
2023-03-12T18:22:03.169Z,98062.06
2023-03-12T18:24:30.170Z,98062.91
2023-03-12T18:26:57.202Z,98063.56
2023-03-12T18:29:24.412Z,98063.97
2023-03-12T18:31:51.257Z,98064.50
2023-03-12T18:34:17.929Z,98061.47
2023-03-12T18:36:44.773Z,98066.28
2023-03-12T18:39:11.543Z,98059.22
2023-03-12T18:41:40.754Z,98062.44
2023-03-12T18:44:08.819Z,98056.97
2023-03-12T18:46:35.680Z,98054.84
2023-03-12T18:49:07.780Z,98064.16
2023-03-12T18:51:35.525Z,98063.16
2023-03-12T18:54:02.426Z,98059.97
2023-03-12T18:56:29.357Z,98066.84
2023-03-12T18:58:56.282Z,98070.31
2023-03-12T19:01:23.083Z,98079.28
2023-03-12T19:03:50.066Z,98070.75
2023-03-12T19:06:17.285Z,98088.63
2023-03-12T19:08:44.328Z,98087.97
2023-03-12T19:11:15.679Z,98087.56
2023-03-12T19:13:43.240Z,98089.03
2023-03-12T19:16:11.891Z,98091.25
2023-03-12T19:18:39.573Z,98093.84
2023-03-12T19:21:09.789Z,98101.94
2023-03-12T19:23:37.132Z,98099.69
2023-03-12T19:26:04.759Z,98098.78
2023-03-12T19:28:31.680Z,98102.25
2023-03-12T19:31:03.205Z,98106.41
2023-03-12T19:33:30.453Z,98095.44
2023-03-12T19:35:58.209Z,98094.41
2023-03-12T19:38:25.350Z,98087.97
2023-03-12T19:40:56.981Z,98079.28
2023-03-12T19:43:24.479Z,98089.91
2023-03-12T19:45:51.702Z,98087.31
2023-03-12T19:48:18.790Z,98098.19
2023-03-12T19:50:45.666Z,98094.66
2023-03-12T19:53:13.400Z,98098.72
2023-03-12T19:55:40.280Z,98104.47
2023-03-12T19:58:08.382Z,98121.78
2023-03-12T20:00:35.292Z,98120.22
2023-03-12T20:03:02.331Z,98118.13
2023-03-12T20:05:29.257Z,98124.22
2023-03-12T20:07:56.118Z,98127.13
2023-03-12T20:10:23.116Z,98128.78
2023-03-12T20:12:50.036Z,98122.09
2023-03-12T20:15:17.044Z,98120.81
2023-03-12T20:17:43.898Z,98120.06
2023-03-12T20:20:10.865Z,98123.25
2023-03-12T20:22:37.775Z,98127.66
2023-03-12T20:25:06.396Z,98131.06
2023-03-12T20:27:34.443Z,98128.00
2023-03-12T20:30:01.389Z,98135.84
2023-03-12T20:32:28.903Z,98130.59
2023-03-12T20:34:55.814Z,98124.78
2023-03-12T20:37:22.722Z,98136.69
2023-03-12T20:39:49.625Z,98131.91
2023-03-12T20:42:16.599Z,98133.16
2023-03-12T20:44:43.454Z,98148.75
2023-03-12T20:47:10.114Z,98150.34
2023-03-12T20:49:37.009Z,98145.38
2023-03-12T20:52:03.980Z,98155.81
2023-03-12T20:54:30.832Z,98153.88
2023-03-12T20:56:57.580Z,98162.31
2023-03-12T20:59:24.674Z,98157.72
2023-03-12T21:01:51.544Z,98146.28
2023-03-12T21:04:18.522Z,98141.28
2023-03-12T21:06:45.393Z,98128.31
2023-03-12T21:09:12.233Z,98130.94
2023-03-12T21:11:40.298Z,98130.28
2023-03-12T21:14:06.958Z,98136.03
2023-03-12T21:16:33.934Z,98130.03
2023-03-12T21:19:01.210Z,98127.19
2023-03-12T21:21:28.109Z,98141.66
2023-03-12T21:23:54.959Z,98145.78
2023-03-12T21:26:22.097Z,98149.47
2023-03-12T21:28:48.989Z,98152.09
2023-03-12T21:31:16.211Z,98147.44
2023-03-12T21:33:43.334Z,98158.03
2023-03-12T21:36:12.873Z,98144.81
2023-03-12T21:38:40.608Z,98132.56
2023-03-12T21:41:09.843Z,98130.34
2023-03-12T21:43:36.924Z,98129.56
2023-03-12T21:46:15.368Z,98135.53
2023-03-12T21:48:45.005Z,98125.03
2023-03-12T21:51:14.123Z,98131.25
2023-03-12T21:53:41.096Z,98131.31
2023-03-12T21:56:09.038Z,98123.16
2023-03-12T21:58:36.646Z,98119.84
2023-03-12T22:01:17.415Z,98123.25
2023-03-12T22:03:45.584Z,98122.94
2023-03-12T22:06:13.837Z,98132.63
2023-03-12T22:08:41.771Z,98123.91
2023-03-12T22:11:09.274Z,98122.06
2023-03-12T22:13:36.171Z,98131.47
2023-03-12T22:16:06.949Z,98128.88
2023-03-12T22:18:36.264Z,98139.13
2023-03-12T22:21:05.431Z,98135.75
2023-03-12T22:23:32.356Z,98128.28
2023-03-12T22:26:03.839Z,98124.25
2023-03-12T22:28:31.639Z,98127.69
2023-03-12T22:31:01.932Z,98119.59
2023-03-12T22:33:29.484Z,98120.34
2023-03-12T22:35:56.599Z,98118.09
2023-03-12T22:38:24.170Z,98113.50
2023-03-12T22:40:52.608Z,98122.19
2023-03-12T22:43:20.585Z,98122.94
2023-03-12T22:45:47.294Z,98123.22
2023-03-12T22:48:14.129Z,98118.09
2023-03-12T22:50:40.784Z,98103.69
2023-03-12T22:53:07.629Z,98113.88
2023-03-12T22:55:34.395Z,98121.31
2023-03-12T22:58:01.305Z,98135.28
2023-03-12T23:00:28.223Z,98133.16
2023-03-12T23:02:55.098Z,98130.44
2023-03-12T23:05:21.760Z,98132.91
2023-03-12T23:07:48.911Z,98138.63
2023-03-12T23:10:15.891Z,98143.41
2023-03-12T23:12:42.815Z,98147.31
2023-03-12T23:15:10.029Z,98147.78
2023-03-12T23:17:37.160Z,98161.06
2023-03-12T23:20:06.002Z,98168.81
2023-03-12T23:22:33.593Z,98167.03
2023-03-12T23:25:00.480Z,98163.16
2023-03-12T23:27:27.382Z,98163.69
2023-03-12T23:29:54.239Z,98154.47
2023-03-12T23:32:20.950Z,98157.91
2023-03-12T23:34:47.837Z,98154.78
2023-03-12T23:37:14.982Z,98154.47
2023-03-12T23:39:53.861Z,98146.63
2023-03-12T23:42:21.615Z,98147.66
2023-03-12T23:44:48.491Z,98152.06
2023-03-12T23:47:15.344Z,98149.53
2023-03-12T23:49:41.995Z,98149.75
2023-03-12T23:52:08.847Z,98154.09
2023-03-12T23:54:36.076Z,98163.34
2023-03-12T23:57:02.970Z,98166.38
2023-03-12T23:59:29.903Z,98172.91
